createdAt,value
2018-12-26T00:01:37.578Z,2.50
2018-12-26T00:04:06.198Z,2.50
2018-12-26T00:06:34.685Z,2.50
2018-12-26T00:09:04.861Z,2.50
2018-12-26T00:11:33.361Z,2.60
2018-12-26T00:14:01.939Z,2.60
2018-12-26T00:16:30.493Z,2.70
2018-12-26T00:18:59.005Z,2.70
2018-12-26T00:21:27.501Z,2.80
2018-12-26T00:23:56.157Z,2.80
2018-12-26T00:26:24.782Z,2.90
2018-12-26T00:28:53.361Z,2.90
2018-12-26T00:31:21.837Z,2.90
2018-12-26T00:33:50.352Z,2.90
2018-12-26T00:36:18.913Z,2.80
2018-12-26T00:38:47.418Z,2.80
2018-12-26T00:41:16.001Z,2.80
2018-12-26T00:43:44.493Z,2.90
2018-12-26T00:46:12.997Z,2.90
2018-12-26T00:48:41.512Z,2.90
2018-12-26T00:51:10.097Z,2.90
2018-12-26T00:53:38.585Z,2.90
2018-12-26T00:56:10.652Z,2.80
2018-12-26T00:58:37.311Z,2.90
2018-12-26T01:01:05.894Z,2.80
2018-12-26T01:03:34.460Z,2.80
2018-12-26T01:06:03.136Z,2.80
2018-12-26T01:08:31.689Z,2.90
2018-12-26T01:11:00.201Z,2.90
2018-12-26T01:13:28.688Z,2.90
2018-12-26T01:15:57.205Z,3.00
2018-12-26T01:18:25.774Z,3.00
2018-12-26T01:20:54.358Z,3.00
2018-12-26T01:23:22.918Z,3.00
2018-12-26T01:25:51.509Z,3.00
2018-12-26T01:28:20.007Z,3.00
2018-12-26T01:30:48.596Z,3.00
2018-12-26T01:33:17.089Z,3.00
2018-12-26T01:35:45.598Z,3.10
2018-12-26T01:38:14.166Z,3.00
2018-12-26T01:40:42.657Z,3.10
2018-12-26T01:43:11.241Z,3.10
2018-12-26T01:45:39.813Z,3.00
2018-12-26T01:48:08.403Z,2.90
2018-12-26T01:50:36.966Z,3.00
2018-12-26T01:53:05.482Z,2.90
2018-12-26T01:55:34.059Z,2.90
2018-12-26T01:58:02.645Z,2.90
2018-12-26T02:00:31.197Z,3.00
2018-12-26T02:02:59.708Z,3.00
2018-12-26T02:05:28.269Z,2.90
2018-12-26T02:07:56.853Z,2.90
2018-12-26T02:10:25.336Z,2.90
2018-12-26T02:12:53.843Z,3.00
2018-12-26T02:15:22.400Z,2.90
2018-12-26T02:17:51.007Z,2.90
2018-12-26T02:20:19.689Z,3.00
2018-12-26T02:22:48.198Z,3.00
2018-12-26T02:25:16.701Z,2.90
2018-12-26T02:27:45.210Z,2.90
2018-12-26T02:30:13.838Z,2.90
2018-12-26T02:32:42.428Z,2.90
2018-12-26T02:35:10.979Z,2.80
2018-12-26T02:37:39.585Z,2.80
2018-12-26T02:40:08.217Z,2.80
2018-12-26T02:42:36.803Z,2.80
2018-12-26T02:45:06.310Z,2.90
2018-12-26T02:47:34.904Z,2.90
2018-12-26T02:50:04.745Z,2.90
2018-12-26T02:52:33.329Z,2.90
2018-12-26T02:55:01.910Z,2.90
2018-12-26T02:57:30.477Z,2.90
2018-12-26T02:59:58.989Z,2.80
2018-12-26T03:02:27.884Z,2.80
2018-12-26T03:04:56.451Z,2.70
2018-12-26T03:07:25.017Z,2.80
2018-12-26T03:09:53.531Z,2.80
2018-12-26T03:12:22.088Z,2.80
2018-12-26T03:14:50.673Z,2.80
2018-12-26T03:17:19.158Z,2.70
2018-12-26T03:19:47.746Z,2.70
2018-12-26T03:22:16.254Z,2.70
2018-12-26T03:24:44.917Z,2.80
2018-12-26T03:27:13.486Z,2.80
2018-12-26T03:29:42.066Z,2.80
2018-12-26T03:32:10.627Z,2.70
2018-12-26T03:34:39.227Z,2.70
2018-12-26T03:37:08.062Z,2.70
2018-12-26T03:39:36.677Z,2.70
2018-12-26T03:42:05.309Z,2.70
2018-12-26T03:44:35.750Z,2.70
2018-12-26T03:47:04.584Z,2.70
2018-12-26T03:49:33.312Z,2.70
2018-12-26T03:52:02.202Z,2.60
2018-12-26T03:54:30.870Z,2.70
2018-12-26T03:57:06.034Z,2.70
2018-12-26T03:59:29.725Z,2.80
2018-12-26T04:01:58.313Z,2.80
2018-12-26T04:04:26.891Z,2.80
2018-12-26T04:06:55.496Z,2.70
2018-12-26T04:09:24.198Z,2.70
2018-12-26T04:11:52.851Z,2.70
2018-12-26T04:14:21.484Z,2.60
2018-12-26T04:16:50.172Z,2.60
2018-12-26T04:19:18.795Z,2.70
2018-12-26T04:21:47.312Z,2.60
2018-12-26T04:24:15.880Z,2.60
2018-12-26T04:26:44.453Z,2.60
2018-12-26T04:29:12.961Z,2.60
2018-12-26T04:31:41.547Z,2.60
2018-12-26T04:34:10.116Z,2.60
2018-12-26T04:36:38.699Z,2.60
2018-12-26T04:39:07.273Z,2.50
2018-12-26T04:41:35.858Z,2.50
2018-12-26T04:44:04.347Z,2.60
2018-12-26T04:46:33.041Z,2.60
2018-12-26T04:49:01.606Z,2.60
2018-12-26T04:51:30.194Z,2.60
2018-12-26T04:53:58.785Z,2.50
2018-12-26T04:56:27.378Z,2.60
2018-12-26T04:58:55.878Z,2.50
2018-12-26T05:01:24.447Z,2.60
2018-12-26T05:03:53.094Z,2.60
2018-12-26T05:06:21.666Z,2.60
2018-12-26T05:08:50.245Z,2.50
2018-12-26T05:11:18.873Z,2.60
2018-12-26T05:13:47.459Z,2.60
2018-12-26T05:16:16.101Z,2.70
2018-12-26T05:18:44.773Z,2.70
2018-12-26T05:21:13.330Z,2.70
2018-12-26T05:23:41.837Z,2.60
2018-12-26T05:26:10.407Z,2.70
2018-12-26T05:28:39.084Z,2.70
2018-12-26T05:31:07.633Z,2.60
2018-12-26T05:33:36.139Z,2.60
2018-12-26T05:36:04.630Z,2.50
2018-12-26T05:38:33.287Z,2.50
2018-12-26T05:41:01.862Z,2.60
2018-12-26T05:43:30.433Z,2.60
2018-12-26T05:45:58.994Z,2.60
2018-12-26T05:48:27.578Z,2.60
2018-12-26T05:50:56.072Z,2.60
2018-12-26T05:53:24.657Z,2.60
2018-12-26T05:55:53.154Z,2.60
2018-12-26T05:58:21.750Z,2.50
2018-12-26T06:00:50.312Z,2.50
2018-12-26T06:03:18.894Z,2.50
2018-12-26T06:05:47.454Z,2.50
2018-12-26T06:08:15.941Z,2.40
2018-12-26T06:10:44.462Z,2.40
2018-12-26T06:13:13.025Z,2.50
2018-12-26T06:15:41.544Z,2.40
2018-12-26T06:18:10.033Z,2.50
2018-12-26T06:20:38.608Z,2.40
2018-12-26T06:23:07.094Z,2.40
2018-12-26T06:25:35.610Z,2.50
2018-12-26T06:28:04.099Z,2.50
2018-12-26T06:30:32.693Z,2.50
2018-12-26T06:33:01.256Z,2.50
2018-12-26T06:35:29.837Z,2.50
2018-12-26T06:37:58.324Z,2.50
2018-12-26T06:40:26.825Z,2.60
2018-12-26T06:42:55.323Z,2.60
2018-12-26T06:45:23.905Z,2.60
2018-12-26T06:47:52.464Z,2.50
2018-12-26T06:50:21.048Z,2.60
2018-12-26T06:52:49.629Z,2.50
2018-12-26T06:55:18.205Z,2.50
2018-12-26T06:57:46.697Z,2.60
2018-12-26T07:00:15.198Z,2.50
2018-12-26T07:02:43.685Z,2.50
2018-12-26T07:05:12.262Z,2.50
2018-12-26T07:07:40.829Z,2.50
2018-12-26T07:10:09.431Z,2.50
2018-12-26T07:12:37.993Z,2.50
2018-12-26T07:15:06.655Z,2.50
2018-12-26T07:17:35.234Z,2.50
2018-12-26T07:20:03.934Z,2.50
2018-12-26T07:22:32.545Z,2.50
2018-12-26T07:25:01.097Z,2.50
2018-12-26T07:27:29.612Z,2.50
2018-12-26T07:29:58.105Z,2.50
2018-12-26T07:32:26.612Z,2.50
2018-12-26T07:34:55.100Z,2.50
2018-12-26T07:37:23.600Z,2.50
2018-12-26T07:39:52.090Z,2.50
2018-12-26T07:42:20.690Z,2.50
2018-12-26T07:44:49.249Z,2.50
2018-12-26T07:47:17.832Z,2.50
2018-12-26T07:49:46.389Z,2.40
2018-12-26T07:52:14.898Z,2.40
2018-12-26T07:54:43.406Z,2.40
2018-12-26T07:57:11.980Z,2.40
2018-12-26T07:59:40.472Z,2.50
2018-12-26T08:02:08.985Z,2.50
2018-12-26T08:04:37.481Z,2.60
2018-12-26T08:07:06.058Z,2.60
2018-12-26T08:09:34.562Z,2.60
2018-12-26T08:12:03.137Z,2.60
2018-12-26T08:14:31.704Z,2.60
2018-12-26T08:17:00.232Z,2.60
2018-12-26T08:19:28.814Z,2.70
2018-12-26T08:21:57.378Z,2.70
2018-12-26T08:24:25.965Z,2.70
2018-12-26T08:26:54.538Z,2.60
2018-12-26T08:29:23.123Z,2.60
2018-12-26T08:31:51.680Z,2.60
2018-12-26T08:34:20.192Z,2.60
2018-12-26T08:36:48.753Z,2.60
2018-12-26T08:39:17.356Z,2.60
2018-12-26T08:41:45.987Z,2.70
2018-12-26T08:44:14.567Z,2.70
2018-12-26T08:46:43.142Z,2.70
2018-12-26T08:49:11.808Z,2.70
2018-12-26T08:51:40.434Z,2.80
2018-12-26T08:54:09.014Z,2.80
2018-12-26T08:56:37.578Z,2.80
2018-12-26T08:59:06.165Z,2.80
2018-12-26T09:01:34.912Z,2.80
2018-12-26T09:04:03.428Z,2.80
2018-12-26T09:06:31.999Z,2.90
2018-12-26T09:09:00.582Z,2.90
2018-12-26T09:11:29.068Z,2.90
2018-12-26T09:13:57.577Z,2.90
2018-12-26T09:16:26.073Z,2.90
2018-12-26T09:18:54.655Z,2.90
2018-12-26T09:21:23.223Z,2.90
2018-12-26T09:23:51.883Z,2.90
2018-12-26T09:26:20.437Z,2.80
2018-12-26T09:28:48.946Z,2.90
2018-12-26T09:31:17.474Z,3.00
2018-12-26T09:33:46.041Z,2.90
2018-12-26T09:36:14.535Z,3.00
2018-12-26T09:38:43.107Z,3.00
2018-12-26T09:41:11.617Z,3.00
2018-12-26T09:43:40.118Z,3.00
2018-12-26T09:46:08.702Z,3.00
2018-12-26T09:48:38.674Z,3.00
2018-12-26T09:51:07.269Z,3.00
2018-12-26T09:53:35.862Z,3.10
2018-12-26T09:56:04.446Z,3.00
2018-12-26T09:58:33.009Z,3.10
2018-12-26T10:01:01.537Z,3.10
2018-12-26T10:03:30.099Z,3.20
2018-12-26T10:05:58.681Z,3.20
2018-12-26T10:08:27.165Z,3.20
2018-12-26T10:10:55.749Z,3.10
2018-12-26T10:13:24.253Z,3.10
2018-12-26T10:15:52.761Z,3.10
2018-12-26T10:18:21.268Z,3.20
2018-12-26T10:20:49.845Z,3.20
2018-12-26T10:23:18.346Z,3.20
2018-12-26T10:25:46.858Z,3.20
2018-12-26T10:28:15.417Z,3.20
2018-12-26T10:30:43.925Z,3.20
2018-12-26T10:33:12.414Z,3.20
2018-12-26T10:35:41.001Z,3.20
2018-12-26T10:38:09.570Z,3.30
2018-12-26T10:40:38.145Z,3.30
2018-12-26T10:43:06.629Z,3.30
2018-12-26T10:45:35.208Z,3.30
2018-12-26T10:48:03.688Z,3.40
2018-12-26T10:50:33.165Z,3.40
2018-12-26T10:53:01.670Z,3.40
2018-12-26T10:55:30.182Z,3.40
2018-12-26T10:57:58.756Z,3.40
2018-12-26T11:00:27.318Z,3.40
2018-12-26T11:02:55.968Z,3.40
2018-12-26T11:05:29.468Z,3.50
2018-12-26T11:07:54.853Z,3.50
2018-12-26T11:10:23.414Z,3.50
2018-12-26T11:12:51.927Z,3.50
2018-12-26T11:15:20.417Z,3.50
2018-12-26T11:17:48.926Z,3.40
2018-12-26T11:20:17.492Z,3.50
2018-12-26T11:22:46.074Z,3.50
2018-12-26T11:25:14.634Z,3.50
2018-12-26T11:27:43.146Z,3.50
2018-12-26T11:30:11.801Z,3.50
2018-12-26T11:32:40.313Z,3.50
2018-12-26T11:35:09.017Z,3.50
2018-12-26T11:37:37.598Z,3.40
2018-12-26T11:40:08.990Z,3.40
2018-12-26T11:42:37.646Z,3.50
2018-12-26T11:45:07.392Z,3.40
2018-12-26T11:47:35.975Z,3.40
2018-12-26T11:50:06.081Z,3.40
2018-12-26T11:52:34.592Z,3.50
2018-12-26T11:55:03.306Z,3.50
2018-12-26T11:57:31.819Z,3.50
2018-12-26T12:00:00.433Z,3.60
2018-12-26T12:02:29.004Z,3.60
2018-12-26T12:04:57.573Z,3.60
2018-12-26T12:07:26.129Z,3.70
2018-12-26T12:09:54.705Z,3.60
2018-12-26T12:12:23.331Z,3.60
2018-12-26T12:14:52.055Z,3.70
2018-12-26T12:17:20.766Z,3.70
2018-12-26T12:19:49.345Z,3.70
2018-12-26T12:22:17.919Z,3.70
2018-12-26T12:24:46.502Z,3.70
2018-12-26T12:27:15.080Z,3.70
2018-12-26T12:29:43.662Z,3.70
2018-12-26T12:32:12.221Z,3.70
2018-12-26T12:34:40.796Z,3.70
2018-12-26T12:37:09.390Z,3.70
2018-12-26T12:39:37.955Z,3.70
2018-12-26T12:42:06.594Z,3.70
2018-12-26T12:44:35.106Z,3.70
2018-12-26T12:47:03.739Z,3.70
2018-12-26T12:49:32.326Z,3.70
2018-12-26T12:52:00.809Z,3.70
2018-12-26T12:54:29.392Z,3.70
2018-12-26T12:57:02.474Z,3.70
2018-12-26T12:59:31.723Z,3.70
2018-12-26T13:02:00.385Z,3.80
2018-12-26T13:04:32.077Z,3.80
2018-12-26T13:07:00.630Z,3.80
2018-12-26T13:09:29.353Z,3.80
2018-12-26T13:11:57.985Z,3.80
2018-12-26T13:14:26.561Z,3.80
2018-12-26T13:16:55.093Z,3.80
2018-12-26T13:19:23.657Z,3.80
2018-12-26T13:21:52.230Z,3.80
2018-12-26T13:24:20.712Z,3.80
2018-12-26T13:26:49.213Z,3.80
2018-12-26T13:29:17.717Z,3.80
2018-12-26T13:31:46.315Z,3.80
2018-12-26T13:34:14.883Z,3.80
2018-12-26T13:36:43.469Z,3.80
2018-12-26T13:39:11.958Z,3.80
2018-12-26T13:41:40.486Z,3.90
2018-12-26T13:44:09.048Z,3.80
2018-12-26T13:46:37.630Z,3.90
2018-12-26T13:49:06.133Z,3.90
2018-12-26T13:51:34.644Z,3.80
2018-12-26T13:54:03.153Z,3.80
2018-12-26T13:56:31.737Z,3.90
2018-12-26T13:59:01.968Z,3.90
2018-12-26T14:01:30.557Z,3.80
2018-12-26T14:03:59.116Z,3.80
2018-12-26T14:06:27.696Z,3.80
2018-12-26T14:08:56.189Z,3.80
2018-12-26T14:11:24.766Z,3.80
2018-12-26T14:13:53.335Z,3.90
2018-12-26T14:16:21.924Z,3.90
2018-12-26T14:18:50.487Z,3.90
2018-12-26T14:21:19.089Z,3.80
2018-12-26T14:23:47.657Z,3.80
2018-12-26T14:26:16.154Z,3.90
2018-12-26T14:28:44.665Z,3.90
2018-12-26T14:31:13.221Z,3.90
2018-12-26T14:33:41.810Z,3.80
2018-12-26T14:36:10.371Z,3.90
2018-12-26T14:38:38.952Z,3.90
2018-12-26T14:41:07.517Z,3.90
2018-12-26T14:43:36.118Z,3.80
2018-12-26T14:46:04.691Z,3.80
2018-12-26T14:48:33.275Z,3.80
2018-12-26T14:51:01.835Z,3.80
2018-12-26T14:53:30.429Z,3.90
2018-12-26T14:55:58.993Z,3.80
2018-12-26T14:58:27.504Z,3.80
2018-12-26T15:00:56.081Z,3.80
2018-12-26T15:03:24.745Z,3.80
2018-12-26T15:05:53.318Z,3.90
2018-12-26T15:08:21.971Z,3.80
2018-12-26T15:10:50.706Z,3.80
2018-12-26T15:13:19.290Z,3.80
2018-12-26T15:15:47.794Z,3.80
2018-12-26T15:18:16.302Z,3.80
2018-12-26T15:20:44.870Z,3.80
2018-12-26T15:23:13.360Z,3.80
2018-12-26T15:25:41.945Z,3.80
2018-12-26T15:28:10.521Z,3.80
2018-12-26T15:30:39.110Z,3.80
2018-12-26T15:33:07.685Z,3.80
2018-12-26T15:35:36.269Z,3.80
2018-12-26T15:38:04.753Z,3.80
2018-12-26T15:40:33.385Z,3.90
2018-12-26T15:43:01.922Z,3.90
2018-12-26T15:45:30.513Z,3.80
2018-12-26T15:47:59.074Z,3.90
2018-12-26T15:50:27.663Z,3.90
2018-12-26T15:52:56.297Z,3.90
2018-12-26T15:55:24.950Z,3.90
2018-12-26T15:57:53.513Z,3.90
2018-12-26T16:00:22.020Z,3.90
2018-12-26T16:02:50.580Z,3.90
2018-12-26T16:05:19.088Z,3.90
2018-12-26T16:07:47.573Z,3.90
2018-12-26T16:10:16.087Z,3.90
2018-12-26T16:12:44.645Z,3.90
2018-12-26T16:15:13.160Z,3.90
2018-12-26T16:17:41.732Z,3.90
2018-12-26T16:20:10.869Z,3.90
2018-12-26T16:22:39.765Z,4.00
2018-12-26T16:25:09.164Z,4.00
2018-12-26T16:27:37.657Z,4.00
2018-12-26T16:30:07.909Z,3.90
2018-12-26T16:32:36.441Z,4.00
2018-12-26T16:35:06.118Z,4.00
2018-12-26T16:37:34.685Z,3.90
2018-12-26T16:40:03.182Z,3.90
2018-12-26T16:42:31.768Z,4.00
2018-12-26T16:45:00.340Z,4.00
2018-12-26T16:47:28.917Z,4.00
2018-12-26T16:49:57.492Z,4.00
2018-12-26T16:52:26.069Z,4.00
2018-12-26T16:54:54.695Z,4.00
2018-12-26T16:57:23.293Z,4.00
2018-12-26T16:59:51.846Z,4.00
2018-12-26T17:02:20.352Z,4.00
2018-12-26T17:04:48.857Z,4.00
2018-12-26T17:07:17.366Z,4.00
2018-12-26T17:09:45.934Z,4.00
2018-12-26T17:12:14.447Z,4.00
2018-12-26T17:14:43.006Z,4.00
2018-12-26T17:17:11.509Z,4.00
2018-12-26T17:19:40.086Z,4.00
2018-12-26T17:22:08.612Z,4.10
2018-12-26T17:24:37.167Z,4.10
2018-12-26T17:27:05.749Z,4.10
2018-12-26T17:29:34.237Z,4.10
2018-12-26T17:32:02.742Z,4.10
2018-12-26T17:34:31.337Z,4.10
2018-12-26T17:36:59.850Z,4.10
2018-12-26T17:39:28.408Z,4.10
2018-12-26T17:41:56.921Z,4.10
2018-12-26T17:44:25.413Z,4.10
2018-12-26T17:46:53.936Z,4.20
2018-12-26T17:49:22.504Z,4.20
2018-12-26T17:51:52.694Z,4.20
2018-12-26T17:54:24.201Z,4.20
2018-12-26T17:56:54.581Z,4.20
2018-12-26T17:59:31.990Z,4.20
2018-12-26T18:02:03.602Z,4.20
2018-12-26T18:04:32.101Z,4.20
2018-12-26T18:07:00.590Z,4.20
2018-12-26T18:09:29.183Z,4.30
2018-12-26T18:12:11.288Z,4.20
2018-12-26T18:14:28.051Z,4.20
2018-12-26T18:16:56.556Z,4.20
2018-12-26T18:19:25.072Z,4.20
2018-12-26T18:21:53.629Z,4.20
2018-12-26T18:24:22.212Z,4.20
2018-12-26T18:26:50.783Z,4.20
2018-12-26T18:29:19.357Z,4.20
2018-12-26T18:31:47.854Z,4.30
2018-12-26T18:34:16.458Z,4.30
2018-12-26T18:36:45.025Z,4.20
2018-12-26T18:39:13.533Z,4.20
2018-12-26T18:41:42.098Z,4.30
2018-12-26T18:44:10.683Z,4.20
2018-12-26T18:46:39.254Z,4.30
2018-12-26T18:49:07.833Z,4.20
2018-12-26T18:51:36.333Z,4.20
2018-12-26T18:54:04.842Z,4.30
2018-12-26T18:56:33.329Z,4.20
2018-12-26T18:59:01.832Z,4.20
2018-12-26T19:01:30.717Z,4.20
2018-12-26T19:03:59.481Z,4.20
2018-12-26T19:06:27.992Z,4.20
2018-12-26T19:08:56.553Z,4.20
2018-12-26T19:11:25.137Z,4.20
2018-12-26T19:13:53.626Z,4.20
2018-12-26T19:16:22.132Z,4.20
2018-12-26T19:18:50.633Z,4.20
2018-12-26T19:21:19.141Z,4.20
2018-12-26T19:23:47.726Z,4.20
2018-12-26T19:26:16.238Z,4.20
2018-12-26T19:28:44.806Z,4.10
2018-12-26T19:31:13.317Z,4.10
2018-12-26T19:33:41.804Z,4.10
2018-12-26T19:36:10.394Z,4.10
2018-12-26T19:38:38.960Z,4.10
2018-12-26T19:41:07.480Z,4.10
2018-12-26T19:43:36.035Z,4.00
2018-12-26T19:46:04.710Z,4.00
2018-12-26T19:48:33.280Z,4.00
2018-12-26T19:51:01.791Z,4.00
2018-12-26T19:53:30.345Z,4.00
2018-12-26T19:55:59.022Z,3.90
2018-12-26T19:58:29.233Z,3.90
2018-12-26T20:00:57.984Z,3.90
2018-12-26T20:03:26.550Z,3.80
2018-12-26T20:05:55.133Z,3.80
2018-12-26T20:08:23.633Z,3.80
2018-12-26T20:10:52.146Z,3.80
2018-12-26T20:13:20.645Z,3.80
2018-12-26T20:15:49.208Z,3.70
2018-12-26T20:18:17.790Z,3.70
2018-12-26T20:20:46.354Z,3.70
2018-12-26T20:23:14.959Z,3.70
2018-12-26T20:25:43.519Z,3.70
2018-12-26T20:28:12.098Z,3.70
2018-12-26T20:30:40.681Z,3.70
2018-12-26T20:33:09.268Z,3.70
2018-12-26T20:35:37.829Z,3.70
2018-12-26T20:38:06.412Z,3.60
2018-12-26T20:40:34.901Z,3.70
2018-12-26T20:43:03.410Z,3.60
2018-12-26T20:45:31.989Z,3.60
2018-12-26T20:48:00.576Z,3.60
2018-12-26T20:50:29.140Z,3.60
2018-12-26T20:52:57.721Z,3.60
2018-12-26T20:55:26.357Z,3.60
2018-12-26T20:57:54.942Z,3.60
2018-12-26T21:00:23.499Z,3.60
2018-12-26T21:02:52.078Z,3.50
2018-12-26T21:05:20.648Z,3.50
2018-12-26T21:07:49.225Z,3.50
2018-12-26T21:10:17.722Z,3.50
2018-12-26T21:12:46.312Z,3.50
2018-12-26T21:15:14.900Z,3.50
2018-12-26T21:17:43.482Z,3.50
2018-12-26T21:20:13.593Z,3.50
2018-12-26T21:22:42.333Z,3.50
2018-12-26T21:25:10.901Z,3.50
2018-12-26T21:27:39.394Z,3.50
2018-12-26T21:30:11.048Z,3.50
2018-12-26T21:32:39.620Z,3.40
2018-12-26T21:35:08.127Z,3.40
2018-12-26T21:37:36.694Z,3.40
2018-12-26T21:40:07.425Z,3.40
2018-12-26T21:42:35.914Z,3.40
2018-12-26T21:45:06.377Z,3.40
2018-12-26T21:47:34.944Z,3.40
2018-12-26T21:50:04.766Z,3.30
2018-12-26T21:52:33.336Z,3.40
2018-12-26T21:55:01.845Z,3.40
2018-12-26T21:57:30.416Z,3.40
2018-12-26T21:59:58.997Z,3.40
2018-12-26T22:02:27.493Z,3.40
2018-12-26T22:04:55.997Z,3.40
2018-12-26T22:07:24.569Z,3.30
2018-12-26T22:09:53.094Z,3.30
2018-12-26T22:12:21.657Z,3.30
2018-12-26T22:14:50.166Z,3.30
2018-12-26T22:17:18.657Z,3.40
2018-12-26T22:19:47.189Z,3.40
2018-12-26T22:22:15.681Z,3.30
2018-12-26T22:24:44.255Z,3.30
2018-12-26T22:27:12.762Z,3.30
2018-12-26T22:29:41.347Z,3.20
2018-12-26T22:32:09.834Z,3.20
2018-12-26T22:34:38.321Z,3.20
2018-12-26T22:37:06.909Z,3.20
2018-12-26T22:39:35.473Z,3.20
2018-12-26T22:42:03.977Z,3.20
2018-12-26T22:44:32.459Z,3.20
2018-12-26T22:47:00.967Z,3.10
2018-12-26T22:49:29.529Z,3.10
2018-12-26T22:51:58.115Z,3.10
2018-12-26T22:54:26.674Z,3.10
2018-12-26T22:56:55.257Z,3.10
2018-12-26T22:59:23.746Z,3.10
2018-12-26T23:01:52.352Z,3.10
2018-12-26T23:04:20.861Z,3.10
2018-12-26T23:06:49.429Z,3.10
2018-12-26T23:09:17.914Z,3.10
2018-12-26T23:11:46.493Z,3.10
2018-12-26T23:14:15.064Z,3.00
2018-12-26T23:16:43.642Z,3.00
2018-12-26T23:19:12.140Z,3.00
2018-12-26T23:21:40.702Z,3.00
2018-12-26T23:24:09.352Z,2.90
2018-12-26T23:26:37.833Z,2.90
2018-12-26T23:29:06.406Z,2.90
2018-12-26T23:31:34.898Z,2.90
2018-12-26T23:34:03.405Z,2.90
2018-12-26T23:36:31.893Z,3.00
2018-12-26T23:39:00.402Z,3.00
2018-12-26T23:41:29.988Z,2.90
2018-12-26T23:43:58.589Z,2.90
2018-12-26T23:46:27.157Z,2.90
2018-12-26T23:48:55.733Z,2.90
2018-12-26T23:51:24.217Z,2.90
2018-12-26T23:53:52.811Z,2.90
2018-12-26T23:56:21.293Z,2.90
2018-12-26T23:58:49.797Z,2.90
